createdAt,value
2022-08-09T00:00:11.378Z,1001.45
2022-08-09T00:01:10.224Z,1001.41
2022-08-09T00:02:09.728Z,1001.47
2022-08-09T00:03:10.862Z,1001.45
2022-08-09T00:04:34.172Z,1001.42
2022-08-09T00:06:16.207Z,1001.44
2022-08-09T00:06:18.144Z,1001.39
2022-08-09T00:07:11.018Z,1001.38
2022-08-09T00:08:09.931Z,1001.37
2022-08-09T00:09:09.604Z,1001.37
2022-08-09T00:10:09.512Z,1001.38
2022-08-09T00:11:24.436Z,1001.34
2022-08-09T00:12:22.837Z,1001.35
2022-08-09T00:13:17.429Z,1001.37
2022-08-09T00:14:10.532Z,1001.34
2022-08-09T00:15:14.611Z,1001.37
2022-08-09T00:16:12.889Z,1001.40
2022-08-09T00:17:09.451Z,1001.38
2022-08-09T00:18:12.403Z,1001.37
2022-08-09T00:19:10.395Z,1001.33
2022-08-09T00:20:09.403Z,1001.45
2022-08-09T00:21:09.498Z,1001.39
2022-08-09T00:22:09.427Z,1001.43
2022-08-09T00:23:55.082Z,1001.37
2022-08-09T00:24:10.457Z,1001.42
2022-08-09T00:25:10.151Z,1001.38
2022-08-09T00:26:11.164Z,1001.42
2022-08-09T00:27:09.404Z,1001.35
2022-08-09T00:28:09.333Z,1001.35
2022-08-09T00:29:12.428Z,1001.39
2022-08-09T00:30:24.484Z,1001.30
2022-08-09T00:31:56.961Z,1001.38
2022-08-09T00:32:12.703Z,1001.40
2022-08-09T00:33:09.348Z,1001.41
2022-08-09T00:34:09.263Z,1001.45
2022-08-09T00:35:10.211Z,1001.44
2022-08-09T00:36:09.272Z,1001.49
2022-08-09T00:37:09.244Z,1001.47
2022-08-09T00:38:09.247Z,1001.43
2022-08-09T00:39:10.962Z,1001.52
2022-08-09T00:40:16.826Z,1001.47
2022-08-09T00:41:10.195Z,1001.45
2022-08-09T00:44:14.816Z,1001.44
2022-08-09T00:44:15.219Z,1001.52
2022-08-09T00:44:27.381Z,1001.44
2022-08-09T00:45:15.558Z,1001.50
2022-08-09T00:46:10.226Z,1001.48
2022-08-09T00:47:09.156Z,1001.46
2022-08-09T00:48:10.109Z,1001.50
2022-08-09T00:49:10.100Z,1001.42
2022-08-09T00:50:14.577Z,1001.47
2022-08-09T00:51:11.951Z,1001.50
2022-08-09T00:52:17.401Z,1001.48
2022-08-09T00:53:10.166Z,1001.54
2022-08-09T00:54:09.058Z,1001.49
2022-08-09T00:55:09.037Z,1001.47
2022-08-09T00:56:10.164Z,1001.51
2022-08-09T00:57:10.558Z,1001.43
2022-08-09T00:58:09.225Z,1001.51
2022-08-09T00:59:09.998Z,1001.56
2022-08-09T01:00:20.487Z,1001.45
2022-08-09T01:01:10.173Z,1001.56
2022-08-09T01:02:11.882Z,1001.47
2022-08-09T01:03:10.318Z,1001.53
2022-08-09T01:04:08.994Z,1001.52
2022-08-09T01:05:14.311Z,1001.50
2022-08-09T01:06:17.843Z,1001.59
2022-08-09T01:07:12.295Z,1001.52
2022-08-09T01:08:08.890Z,1001.51
2022-08-09T01:09:09.597Z,1001.54
2022-08-09T01:10:10.767Z,1001.48
2022-08-09T01:11:10.201Z,1001.51
2022-08-09T01:12:09.765Z,1001.48
2022-08-09T01:13:09.951Z,1001.46
2022-08-09T01:14:09.925Z,1001.50
2022-08-09T01:15:09.894Z,1001.50
2022-08-09T01:16:09.790Z,1001.49
2022-08-09T01:17:10.887Z,1001.51
2022-08-09T01:18:08.866Z,1001.52
2022-08-09T01:19:16.971Z,1001.46
2022-08-09T01:20:09.770Z,1001.47
2022-08-09T01:21:45.121Z,1001.49
2022-08-09T01:22:35.131Z,1001.47
2022-08-09T01:24:03.530Z,1001.43
2022-08-09T01:24:09.710Z,1001.50
2022-08-09T01:25:41.946Z,1001.47
2022-08-09T01:26:08.761Z,1001.50
2022-08-09T01:27:41.086Z,1001.48
2022-08-09T01:28:42.202Z,1001.48
2022-08-09T01:29:08.679Z,1001.45
2022-08-09T01:30:51.930Z,1001.49
2022-08-09T01:31:09.743Z,1001.42
2022-08-09T01:32:30.089Z,1001.45
2022-08-09T01:33:09.985Z,1001.47
2022-08-09T01:34:10.887Z,1001.43
2022-08-09T01:35:28.225Z,1001.44
2022-08-09T01:36:13.611Z,1001.50
2022-08-09T01:37:08.768Z,1001.49
2022-08-09T01:38:10.725Z,1001.53
2022-08-09T01:39:09.696Z,1001.47
2022-08-09T01:40:08.687Z,1001.51
2022-08-09T01:41:08.543Z,1001.56
2022-08-09T01:42:11.269Z,1001.51
2022-08-09T01:43:08.544Z,1001.51
2022-08-09T01:44:08.535Z,1001.48
2022-08-09T01:45:08.489Z,1001.55
2022-08-09T01:46:08.528Z,1001.49
2022-08-09T01:47:11.623Z,1001.58
2022-08-09T01:48:08.471Z,1001.56
2022-08-09T01:49:09.999Z,1001.56
2022-08-09T01:50:08.431Z,1001.55
2022-08-09T01:51:08.432Z,1001.58
2022-08-09T01:52:08.427Z,1001.61
2022-08-09T01:53:19.239Z,1001.64
2022-08-09T01:54:09.403Z,1001.64
2022-08-09T01:55:08.411Z,1001.59
2022-08-09T01:56:08.389Z,1001.59
2022-08-09T01:57:08.361Z,1001.54
2022-08-09T01:58:09.424Z,1001.58
2022-08-09T01:59:08.400Z,1001.63
2022-08-09T02:00:19.358Z,1001.59
2022-08-09T02:01:09.404Z,1001.62
2022-08-09T02:02:08.567Z,1001.63
2022-08-09T02:03:13.546Z,1001.57
2022-08-09T02:04:09.381Z,1001.55
2022-08-09T02:05:15.257Z,1001.56
2022-08-09T02:06:09.295Z,1001.63
2022-08-09T02:07:08.355Z,1001.57
2022-08-09T02:08:39.748Z,1001.59
2022-08-09T02:09:09.281Z,1001.56
2022-08-09T02:10:08.208Z,1001.61
2022-08-09T02:11:16.751Z,1001.70
2022-08-09T02:12:09.301Z,1001.63
2022-08-09T02:13:08.319Z,1001.64
2022-08-09T02:14:09.341Z,1001.66
2022-08-09T02:15:08.370Z,1001.62
2022-08-09T02:16:08.293Z,1001.65
2022-08-09T02:17:59.830Z,1001.69
2022-08-09T02:18:10.775Z,1001.60
2022-08-09T02:19:08.129Z,1001.65
2022-08-09T02:20:08.244Z,1001.69
2022-08-09T02:21:08.150Z,1001.73
2022-08-09T02:22:08.681Z,1001.73
2022-08-09T02:23:08.093Z,1001.67
2022-08-09T02:24:08.082Z,1001.74
2022-08-09T02:25:08.063Z,1001.66
2022-08-09T02:26:08.130Z,1001.70
2022-08-09T02:27:09.884Z,1001.68
2022-08-09T02:28:09.678Z,1001.74
2022-08-09T02:29:08.117Z,1001.67
2022-08-09T02:30:08.096Z,1001.71
2022-08-09T02:31:08.214Z,1001.73
2022-08-09T02:32:07.973Z,1001.73
2022-08-09T02:33:14.272Z,1001.64
2022-08-09T02:34:13.291Z,1001.66
2022-08-09T02:35:17.277Z,1001.70
2022-08-09T02:36:10.552Z,1001.69
2022-08-09T02:37:07.953Z,1001.69
2022-08-09T02:38:08.792Z,1001.66
2022-08-09T02:39:14.138Z,1001.66
2022-08-09T02:40:09.431Z,1001.65
2022-08-09T02:41:07.870Z,1001.65
2022-08-09T02:42:07.961Z,1001.68
2022-08-09T02:43:07.912Z,1001.67
2022-08-09T02:44:13.820Z,1001.69
2022-08-09T02:45:08.893Z,1001.66
2022-08-09T02:46:07.830Z,1001.68
2022-08-09T02:47:08.938Z,1001.71
2022-08-09T02:48:12.360Z,1001.63
2022-08-09T02:49:08.974Z,1001.74
2022-08-09T02:50:07.777Z,1001.68
2022-08-09T02:51:07.770Z,1001.64
2022-08-09T02:52:07.909Z,1001.65
2022-08-09T02:53:07.846Z,1001.65
2022-08-09T02:54:07.905Z,1001.65
2022-08-09T02:55:15.203Z,1001.63
2022-08-09T02:56:08.734Z,1001.66
2022-08-09T02:57:14.162Z,1001.70
2022-08-09T02:58:35.285Z,1001.69
2022-08-09T02:59:08.761Z,1001.70
2022-08-09T03:00:21.098Z,1001.66
2022-08-09T03:01:15.013Z,1001.74
2022-08-09T03:02:12.352Z,1001.74
2022-08-09T03:03:08.689Z,1001.70
2022-08-09T03:04:17.160Z,1001.72
2022-08-09T03:05:08.645Z,1001.66
2022-08-09T03:06:07.659Z,1001.73
2022-08-09T03:07:13.975Z,1001.73
2022-08-09T03:08:08.639Z,1001.68
2022-08-09T03:09:07.677Z,1001.71
2022-08-09T03:10:07.619Z,1001.68
2022-08-09T03:11:07.630Z,1001.70
2022-08-09T03:12:11.254Z,1001.75
2022-08-09T03:13:09.951Z,1001.69
2022-08-09T03:14:07.575Z,1001.72
2022-08-09T03:15:07.642Z,1001.69
2022-08-09T03:16:07.540Z,1001.63
2022-08-09T03:17:07.532Z,1001.69
2022-08-09T03:18:09.735Z,1001.68
2022-08-09T03:19:14.022Z,1001.68
2022-08-09T03:20:11.517Z,1001.67
2022-08-09T03:21:07.501Z,1001.63
2022-08-09T03:22:12.439Z,1001.66
2022-08-09T03:23:14.626Z,1001.67
2022-08-09T03:24:09.967Z,1001.68
2022-08-09T03:25:26.827Z,1001.61
2022-08-09T03:26:08.449Z,1001.70
2022-08-09T03:27:07.472Z,1001.77
2022-08-09T03:28:11.392Z,1001.74
2022-08-09T03:29:13.449Z,1001.70
2022-08-09T03:30:08.432Z,1001.74
2022-08-09T03:31:10.433Z,1001.78
2022-08-09T03:32:09.201Z,1001.78
2022-08-09T03:33:17.149Z,1001.81
2022-08-09T03:34:08.320Z,1001.79
2022-08-09T03:35:15.067Z,1001.81
2022-08-09T03:36:13.061Z,1001.77
2022-08-09T03:37:54.859Z,1001.79
2022-08-09T03:38:08.254Z,1001.80
2022-08-09T03:39:08.335Z,1001.82
2022-08-09T03:40:07.310Z,1001.81
2022-08-09T03:41:07.241Z,1001.87
2022-08-09T03:42:07.262Z,1001.84
2022-08-09T03:43:07.241Z,1001.89
2022-08-09T03:44:08.710Z,1001.82
2022-08-09T03:45:07.189Z,1001.95
2022-08-09T03:46:20.589Z,1001.91
2022-08-09T03:47:08.181Z,1001.90
2022-08-09T03:48:07.190Z,1001.92
2022-08-09T03:49:08.122Z,1001.88
2022-08-09T03:50:07.117Z,1001.91
2022-08-09T03:51:07.146Z,1001.90
2022-08-09T03:52:08.141Z,1001.89
2022-08-09T03:53:07.114Z,1001.93
2022-08-09T03:54:11.051Z,1001.88
2022-08-09T03:55:09.827Z,1001.87
2022-08-09T03:56:07.074Z,1001.90
2022-08-09T03:57:18.725Z,1001.91
2022-08-09T03:58:14.929Z,1001.93
2022-08-09T03:59:08.615Z,1001.95
2022-08-09T04:00:08.053Z,1001.87
2022-08-09T04:01:07.096Z,1001.87
2022-08-09T04:02:07.073Z,1001.89
2022-08-09T04:03:07.008Z,1001.90
2022-08-09T04:04:09.939Z,1001.88
2022-08-09T04:05:26.535Z,1001.91
2022-08-09T04:06:07.991Z,1001.92
2022-08-09T04:07:06.963Z,1001.91
2022-08-09T04:08:06.921Z,1001.94
2022-08-09T04:09:13.634Z,1001.90
2022-08-09T04:10:07.957Z,1001.95
2022-08-09T04:11:06.910Z,1001.97
2022-08-09T04:12:06.914Z,1002.01
2022-08-09T04:13:07.910Z,1001.97
2022-08-09T04:14:53.891Z,1002.07
2022-08-09T04:15:11.600Z,1002.02
2022-08-09T04:16:20.606Z,1002.05
2022-08-09T04:17:07.863Z,1002.00
2022-08-09T04:18:06.865Z,1002.06
2022-08-09T04:19:11.082Z,1002.00
2022-08-09T04:20:07.893Z,1001.98
2022-08-09T04:21:06.822Z,1002.02
2022-08-09T04:22:06.786Z,1002.03
2022-08-09T04:23:09.854Z,1002.05
2022-08-09T04:24:06.766Z,1002.02
2022-08-09T04:25:06.819Z,1002.04
2022-08-09T04:26:06.854Z,1002.05
2022-08-09T04:27:06.793Z,1002.00
2022-08-09T04:28:06.731Z,1002.05
2022-08-09T04:29:12.094Z,1002.12
2022-08-09T04:30:08.783Z,1002.05
2022-08-09T04:31:08.672Z,1002.10
2022-08-09T04:32:06.783Z,1002.09
2022-08-09T04:33:07.770Z,1002.08
2022-08-09T04:34:06.906Z,1002.12
2022-08-09T04:35:08.697Z,1002.10
2022-08-09T04:36:06.723Z,1002.15
2022-08-09T04:37:06.715Z,1002.17
2022-08-09T04:38:06.668Z,1002.13
2022-08-09T04:39:06.750Z,1002.14
2022-08-09T04:40:06.619Z,1002.12
2022-08-09T04:41:06.615Z,1002.15
2022-08-09T04:42:09.314Z,1002.14
2022-08-09T04:43:06.640Z,1002.15
2022-08-09T04:44:11.072Z,1002.12
2022-08-09T04:45:07.655Z,1002.21
2022-08-09T04:46:06.667Z,1002.20
2022-08-09T04:47:07.568Z,1002.17
2022-08-09T04:48:10.438Z,1002.21
2022-08-09T04:49:07.628Z,1002.13
2022-08-09T04:50:06.516Z,1002.20
2022-08-09T04:51:06.555Z,1002.25
2022-08-09T04:52:06.478Z,1002.20
2022-08-09T04:53:06.427Z,1002.26
2022-08-09T04:54:06.448Z,1002.29
2022-08-09T04:55:08.605Z,1002.28
2022-08-09T04:56:07.412Z,1002.26
2022-08-09T04:57:10.087Z,1002.25
2022-08-09T04:58:09.755Z,1002.32
2022-08-09T04:59:13.006Z,1002.21
2022-08-09T05:00:08.364Z,1002.30
2022-08-09T05:01:16.295Z,1002.28
2022-08-09T05:02:07.381Z,1002.30
2022-08-09T05:03:30.541Z,1002.28
2022-08-09T05:04:07.371Z,1002.24
2022-08-09T05:05:09.804Z,1002.28
2022-08-09T05:06:06.952Z,1002.31
2022-08-09T05:07:06.317Z,1002.33
2022-08-09T05:08:07.357Z,1002.30
2022-08-09T05:09:06.253Z,1002.30
2022-08-09T05:10:06.325Z,1002.30
2022-08-09T05:11:07.488Z,1002.31
2022-08-09T05:12:06.305Z,1002.28
2022-08-09T05:13:06.256Z,1002.28
2022-08-09T05:14:06.725Z,1002.32
2022-08-09T05:15:11.537Z,1002.35
2022-08-09T05:16:07.226Z,1002.36
2022-08-09T05:17:06.177Z,1002.42
2022-08-09T05:18:42.347Z,1002.42
2022-08-09T05:19:07.682Z,1002.41
2022-08-09T05:20:06.181Z,1002.40
2022-08-09T05:21:09.809Z,1002.44
2022-08-09T05:22:07.169Z,1002.39
2022-08-09T05:23:55.292Z,1002.42
2022-08-09T05:24:07.315Z,1002.41
2022-08-09T05:25:06.117Z,1002.38
2022-08-09T05:26:06.106Z,1002.47
2022-08-09T05:27:06.099Z,1002.44
2022-08-09T05:28:06.073Z,1002.47
2022-08-09T05:29:06.085Z,1002.43
2022-08-09T05:30:06.054Z,1002.48
2022-08-09T05:31:09.470Z,1002.44
2022-08-09T05:32:06.110Z,1002.50
2022-08-09T05:33:09.491Z,1002.41
2022-08-09T05:34:06.128Z,1002.45
2022-08-09T05:35:07.015Z,1002.51
2022-08-09T05:36:07.201Z,1002.54
2022-08-09T05:37:07.229Z,1002.50
2022-08-09T05:38:05.973Z,1002.57
2022-08-09T05:39:06.005Z,1002.48
2022-08-09T05:40:06.073Z,1002.57
2022-08-09T05:41:06.002Z,1002.54
2022-08-09T05:42:06.915Z,1002.56
2022-08-09T05:43:05.901Z,1002.54
2022-08-09T05:44:05.923Z,1002.51
2022-08-09T05:45:05.881Z,1002.51
2022-08-09T05:46:05.877Z,1002.53
2022-08-09T05:47:05.973Z,1002.54
2022-08-09T05:48:05.890Z,1002.54
2022-08-09T05:49:07.426Z,1002.48
2022-08-09T05:50:32.394Z,1002.44
2022-08-09T05:51:29.950Z,1002.52
2022-08-09T05:52:08.170Z,1002.51
2022-08-09T05:53:05.798Z,1002.57
2022-08-09T05:54:06.826Z,1002.51
2022-08-09T05:55:07.176Z,1002.56
2022-08-09T05:56:05.828Z,1002.56
2022-08-09T05:57:06.408Z,1002.53
2022-08-09T05:58:07.275Z,1002.60
2022-08-09T05:59:05.727Z,1002.54
2022-08-09T06:00:05.743Z,1002.58
2022-08-09T06:01:06.657Z,1002.56
2022-08-09T06:02:05.711Z,1002.60
2022-08-09T06:03:10.771Z,1002.58
2022-08-09T06:04:06.758Z,1002.59
2022-08-09T06:05:05.706Z,1002.60
2022-08-09T06:06:06.576Z,1002.61
2022-08-09T06:07:07.327Z,1002.60
2022-08-09T06:08:10.879Z,1002.58
2022-08-09T06:09:23.042Z,1002.59
2022-08-09T06:10:06.678Z,1002.58
2022-08-09T06:11:17.500Z,1002.60
2022-08-09T06:12:06.627Z,1002.55
2022-08-09T06:13:12.289Z,1002.63
2022-08-09T06:14:06.606Z,1002.65
2022-08-09T06:15:09.844Z,1002.65
2022-08-09T06:16:06.640Z,1002.61
2022-08-09T06:17:10.287Z,1002.66
2022-08-09T06:18:05.562Z,1002.65
2022-08-09T06:19:05.639Z,1002.66
2022-08-09T06:20:05.532Z,1002.69
2022-08-09T06:21:05.726Z,1002.65
2022-08-09T06:22:05.519Z,1002.67
2022-08-09T06:23:06.496Z,1002.66
2022-08-09T06:24:06.507Z,1002.73
2022-08-09T06:25:08.618Z,1002.67
2022-08-09T06:26:07.485Z,1002.77
2022-08-09T06:27:05.456Z,1002.71
2022-08-09T06:28:05.510Z,1002.77
2022-08-09T06:29:05.682Z,1002.77
2022-08-09T06:30:08.860Z,1002.79
2022-08-09T06:31:06.425Z,1002.75
2022-08-09T06:32:17.253Z,1002.80
2022-08-09T06:33:30.231Z,1002.82
2022-08-09T06:34:06.576Z,1002.81
2022-08-09T06:35:06.392Z,1002.83
2022-08-09T06:36:07.387Z,1002.85
2022-08-09T06:37:05.340Z,1002.88
2022-08-09T06:38:06.792Z,1002.79
2022-08-09T06:39:09.159Z,1002.88
2022-08-09T06:40:20.269Z,1002.85
2022-08-09T06:41:18.370Z,1002.88
2022-08-09T06:42:11.142Z,1002.90
2022-08-09T06:43:07.706Z,1002.90
2022-08-09T06:44:05.325Z,1002.88
2022-08-09T06:46:05.301Z,1002.87
2022-08-09T06:46:10.519Z,1002.92
2022-08-09T06:47:05.273Z,1002.91
2022-08-09T06:48:05.309Z,1002.95
2022-08-09T06:49:05.397Z,1002.94
2022-08-09T06:50:14.885Z,1002.94
2022-08-09T06:51:06.245Z,1002.89
2022-08-09T06:52:05.206Z,1002.90
2022-08-09T06:53:05.249Z,1002.91
2022-08-09T06:54:05.939Z,1002.92
2022-08-09T06:55:12.562Z,1002.95
2022-08-09T06:56:06.178Z,1002.91
2022-08-09T06:57:05.198Z,1002.97
2022-08-09T06:58:05.702Z,1002.94
2022-08-09T07:00:51.003Z,1002.94
2022-08-09T07:00:55.352Z,1002.94
2022-08-09T07:01:06.121Z,1002.93
2022-08-09T07:02:05.208Z,1002.85
2022-08-09T07:03:05.907Z,1002.91
2022-08-09T07:04:05.131Z,1002.92
2022-08-09T07:05:05.147Z,1002.91
2022-08-09T07:06:05.556Z,1002.95
2022-08-09T07:07:06.077Z,1002.89
2022-08-09T07:08:06.035Z,1002.91
2022-08-09T07:09:05.127Z,1002.93
2022-08-09T07:10:18.019Z,1002.90
2022-08-09T07:11:07.226Z,1002.91
2022-08-09T07:12:04.984Z,1002.90
2022-08-09T07:13:27.605Z,1002.89
2022-08-09T07:14:06.432Z,1002.87
2022-08-09T07:16:36.284Z,1002.91
2022-08-09T07:16:41.909Z,1002.90
2022-08-09T07:17:08.159Z,1002.89
2022-08-09T07:18:04.908Z,1002.91
2022-08-09T07:19:05.960Z,1002.87
2022-08-09T07:20:04.950Z,1002.90
2022-08-09T07:21:07.951Z,1002.84
2022-08-09T07:22:04.861Z,1002.87
2022-08-09T07:23:18.060Z,1002.85
2022-08-09T07:24:05.836Z,1002.89
2022-08-09T07:25:05.277Z,1002.90
2022-08-09T07:26:04.876Z,1002.96
2022-08-09T07:27:04.819Z,1002.94
2022-08-09T07:28:05.801Z,1002.91
2022-08-09T07:29:12.163Z,1002.94
2022-08-09T07:30:05.434Z,1002.90
2022-08-09T07:31:04.876Z,1002.91
2022-08-09T07:32:04.770Z,1002.91
2022-08-09T07:33:12.323Z,1002.87
2022-08-09T07:34:05.789Z,1002.95
2022-08-09T07:35:08.112Z,1002.93
2022-08-09T07:36:05.714Z,1003.01
2022-08-09T07:37:04.717Z,1002.96
2022-08-09T07:38:04.735Z,1002.94
2022-08-09T07:39:04.722Z,1002.99
2022-08-09T07:40:05.744Z,1003.00
2022-08-09T07:41:12.819Z,1003.00
2022-08-09T07:42:06.651Z,1002.99
2022-08-09T07:43:07.018Z,1002.98
2022-08-09T07:44:05.626Z,1002.91
2022-08-09T07:45:14.855Z,1002.89
2022-08-09T07:46:05.622Z,1002.89
2022-08-09T07:47:04.691Z,1002.87
2022-08-09T07:48:05.174Z,1002.84
2022-08-09T07:49:05.607Z,1002.86
2022-08-09T07:50:08.518Z,1002.86
2022-08-09T07:52:02.492Z,1002.80
2022-08-09T07:52:16.992Z,1002.81
2022-08-09T07:53:05.549Z,1002.72
2022-08-09T07:54:08.740Z,1002.70
2022-08-09T07:55:09.732Z,1002.70
2022-08-09T07:56:06.525Z,1002.69
2022-08-09T07:57:04.492Z,1002.74
2022-08-09T07:58:05.465Z,1002.71
2022-08-09T07:59:15.761Z,1002.75
2022-08-09T08:00:08.959Z,1002.70
2022-08-09T08:01:06.801Z,1002.66
2022-08-09T08:02:05.506Z,1002.67
2022-08-09T08:03:05.125Z,1002.64
2022-08-09T08:04:04.399Z,1002.64
2022-08-09T08:05:04.504Z,1002.67
2022-08-09T08:06:05.405Z,1002.75
2022-08-09T08:07:15.525Z,1002.69
2022-08-09T08:09:00.759Z,1002.70
2022-08-09T08:09:07.706Z,1002.72
2022-08-09T08:10:08.140Z,1002.74
2022-08-09T08:12:24.073Z,1002.78
2022-08-09T08:12:25.040Z,1002.65
2022-08-09T08:13:05.312Z,1002.77
2022-08-09T08:14:04.790Z,1002.70
2022-08-09T08:15:05.302Z,1002.72
2022-08-09T08:16:04.280Z,1002.74
2022-08-09T08:17:09.023Z,1002.71
2022-08-09T08:18:05.375Z,1002.81
2022-08-09T08:19:04.665Z,1002.73
2022-08-09T08:20:04.335Z,1002.74
2022-08-09T08:21:04.268Z,1002.76
2022-08-09T08:22:04.299Z,1002.76
2022-08-09T08:23:17.134Z,1002.73
2022-08-09T08:24:11.452Z,1002.76
2022-08-09T08:25:04.200Z,1002.73
2022-08-09T08:26:08.074Z,1002.77
2022-08-09T08:27:05.262Z,1002.74
2022-08-09T08:28:05.239Z,1002.71
2022-08-09T08:29:05.157Z,1002.72
2022-08-09T08:30:04.515Z,1002.70
2022-08-09T08:31:14.435Z,1002.70
2022-08-09T08:32:35.535Z,1002.71
2022-08-09T08:33:49.613Z,1002.63
2022-08-09T08:34:37.272Z,1002.60
2022-08-09T08:35:58.096Z,1002.60
2022-08-09T08:36:37.193Z,1002.66
2022-08-09T08:37:41.356Z,1002.62
2022-08-09T08:38:37.200Z,1002.61
2022-08-09T08:39:43.723Z,1002.65
2022-08-09T08:40:38.168Z,1002.63
2022-08-09T08:41:51.299Z,1002.68
2022-08-09T08:42:37.311Z,1002.62
2022-08-09T08:43:37.487Z,1002.70
2022-08-09T08:44:37.283Z,1002.65
2022-08-09T08:45:37.920Z,1002.63
2022-08-09T08:46:50.996Z,1002.64
2022-08-09T08:47:42.610Z,1002.66
2022-08-09T08:48:37.538Z,1002.67
2022-08-09T08:49:47.210Z,1002.67
2022-08-09T08:50:38.721Z,1002.67
2022-08-09T08:51:38.797Z,1002.65
2022-08-09T08:53:00.057Z,1002.68
2022-08-09T08:53:39.559Z,1002.67
2022-08-09T08:54:38.184Z,1002.71
2022-08-09T08:55:37.680Z,1002.74
2022-08-09T08:56:37.620Z,1002.62
2022-08-09T08:57:38.804Z,1002.66
2022-08-09T08:58:36.336Z,1002.68
2022-08-09T08:59:44.502Z,1002.66
2022-08-09T09:00:37.969Z,1002.69
2022-08-09T09:01:52.327Z,1002.69
2022-08-09T09:02:38.917Z,1002.74
2022-08-09T09:03:38.236Z,1002.66
2022-08-09T09:04:47.772Z,1002.67
2022-08-09T09:06:00.680Z,1002.72
2022-08-09T09:06:36.924Z,1002.73
2022-08-09T09:07:36.862Z,1002.69
2022-08-09T09:08:41.053Z,1002.67
2022-08-09T09:09:58.776Z,1002.65
2022-08-09T09:10:37.181Z,1002.68
2022-08-09T09:11:38.543Z,1002.70
2022-08-09T09:12:36.176Z,1002.67
2022-08-09T09:13:54.610Z,1002.65
2022-08-09T09:14:36.898Z,1002.66
2022-08-09T09:15:35.828Z,1002.66
2022-08-09T09:16:35.994Z,1002.73
2022-08-09T09:17:49.182Z,1002.67
2022-08-09T09:18:36.830Z,1002.74
2022-08-09T09:19:41.137Z,1002.66
2022-08-09T09:20:38.039Z,1002.69
2022-08-09T09:21:43.177Z,1002.62
2022-08-09T09:22:35.914Z,1002.69
2022-08-09T09:23:37.742Z,1002.63
2022-08-09T09:24:37.883Z,1002.62
2022-08-09T09:26:01.714Z,1002.60
2022-08-09T09:26:36.720Z,1002.60
2022-08-09T09:28:06.278Z,1002.54
2022-08-09T09:29:02.212Z,1002.68
2022-08-09T09:30:09.307Z,1002.56
2022-08-09T09:30:41.005Z,1002.63
2022-08-09T09:32:01.762Z,1002.57
2022-08-09T09:32:37.085Z,1002.61
2022-08-09T09:33:44.269Z,1002.58
2022-08-09T09:34:36.626Z,1002.63
2022-08-09T09:35:35.602Z,1002.57
2022-08-09T09:36:35.595Z,1002.59
2022-08-09T09:37:35.623Z,1002.62
2022-08-09T09:38:37.047Z,1002.58
2022-08-09T09:39:50.378Z,1002.58
2022-08-09T09:40:37.620Z,1002.61
2022-08-09T09:41:48.868Z,1002.56
2022-08-09T09:42:36.523Z,1002.64
2022-08-09T09:44:10.281Z,1002.60
2022-08-09T09:44:36.944Z,1002.54
2022-08-09T09:45:56.850Z,1002.65
2022-08-09T09:46:51.110Z,1002.65
2022-08-09T09:47:47.839Z,1002.60
2022-08-09T09:48:37.478Z,1002.59
2022-08-09T09:50:07.382Z,1002.59
2022-08-09T09:50:36.482Z,1002.59
2022-08-09T09:51:38.176Z,1002.61
2022-08-09T09:52:37.698Z,1002.62
2022-08-09T09:53:57.236Z,1002.63
2022-08-09T09:54:36.670Z,1002.60
2022-08-09T09:55:35.529Z,1002.56
2022-08-09T09:56:35.436Z,1002.62
2022-08-09T09:58:02.951Z,1002.53
2022-08-09T09:58:37.353Z,1002.63
2022-08-09T09:59:35.808Z,1002.69
2022-08-09T10:00:35.519Z,1002.64
2022-08-09T10:01:38.000Z,1002.62
2022-08-09T10:02:35.669Z,1002.64
2022-08-09T10:03:35.386Z,1002.65
2022-08-09T10:04:35.356Z,1002.65
2022-08-09T10:06:01.037Z,1002.63
2022-08-09T10:06:36.369Z,1002.61
2022-08-09T10:07:35.311Z,1002.62
2022-08-09T10:08:43.329Z,1002.55
2022-08-09T10:09:36.331Z,1002.61
2022-08-09T10:10:35.420Z,1002.59
2022-08-09T10:12:00.345Z,1002.55
2022-08-09T10:12:37.251Z,1002.51
2022-08-09T10:13:45.175Z,1002.51
2022-08-09T10:14:35.211Z,1002.58
2022-08-09T10:16:09.094Z,1002.56
2022-08-09T10:16:56.881Z,1002.48
2022-08-09T10:17:51.416Z,1002.46
2022-08-09T10:18:36.151Z,1002.46
2022-08-09T10:19:35.168Z,1002.46
2022-08-09T10:20:44.492Z,1002.44
2022-08-09T10:21:36.176Z,1002.46
2022-08-09T10:22:35.324Z,1002.44
2022-08-09T10:23:35.153Z,1002.46
2022-08-09T10:24:35.903Z,1002.40
2022-08-09T10:26:04.260Z,1002.45
2022-08-09T10:26:36.205Z,1002.38
2022-08-09T10:27:44.890Z,1002.42
2022-08-09T10:28:36.081Z,1002.40
2022-08-09T10:30:43.934Z,1002.33
2022-08-09T10:32:40.121Z,1002.46
2022-08-09T10:34:09.235Z,1002.39
2022-08-09T10:34:36.674Z,1002.40
2022-08-09T10:35:35.029Z,1002.43
2022-08-09T10:36:35.441Z,1002.38
2022-08-09T10:37:38.384Z,1002.44
2022-08-09T10:38:55.941Z,1002.44
2022-08-09T10:39:40.794Z,1002.40
2022-08-09T10:40:40.926Z,1002.40
2022-08-09T10:41:36.893Z,1002.36
2022-08-09T10:42:34.974Z,1002.40
2022-08-09T10:43:36.046Z,1002.39
2022-08-09T10:44:35.880Z,1002.36
2022-08-09T10:45:35.340Z,1002.37
2022-08-09T10:46:43.475Z,1002.39
2022-08-09T10:48:14.247Z,1002.40
2022-08-09T10:48:36.256Z,1002.40
2022-08-09T10:49:42.774Z,1002.41
2022-08-09T10:50:35.912Z,1002.43
2022-08-09T10:51:41.310Z,1002.37
2022-08-09T10:52:36.538Z,1002.40
2022-08-09T10:53:38.049Z,1002.35
2022-08-09T10:54:34.945Z,1002.44
2022-08-09T10:55:55.082Z,1002.43
2022-08-09T10:56:35.745Z,1002.44
2022-08-09T10:57:34.889Z,1002.46
2022-08-09T10:58:37.112Z,1002.42
2022-08-09T10:59:55.256Z,1002.43
2022-08-09T11:00:35.710Z,1002.46
2022-08-09T11:03:16.569Z,1002.44
2022-08-09T11:03:18.250Z,1002.45
2022-08-09T11:03:49.705Z,1002.46
2022-08-09T11:04:35.777Z,1002.47
2022-08-09T11:05:34.686Z,1002.58
2022-08-09T11:06:35.085Z,1002.42
2022-08-09T11:07:56.985Z,1002.40
2022-08-09T11:08:35.647Z,1002.42
2022-08-09T11:09:37.327Z,1002.48
2022-08-09T11:10:35.705Z,1002.37
2022-08-09T11:11:35.117Z,1002.49
2022-08-09T11:12:36.312Z,1002.39
2022-08-09T11:13:49.982Z,1002.42
2022-08-09T11:14:35.625Z,1002.39
2022-08-09T11:15:38.393Z,1002.46
2022-08-09T11:16:36.263Z,1002.44
2022-08-09T11:17:34.752Z,1002.42
2022-08-09T11:18:35.543Z,1002.42
2022-08-09T11:20:11.230Z,1002.36
2022-08-09T11:20:35.581Z,1002.42
2022-08-09T11:21:34.641Z,1002.34
2022-08-09T11:22:35.718Z,1002.31
2022-08-09T11:23:34.476Z,1002.33
2022-08-09T11:24:34.522Z,1002.31
2022-08-09T11:25:44.904Z,1002.37
2022-08-09T11:26:35.954Z,1002.34
2022-08-09T11:28:04.750Z,1002.35
2022-08-09T11:28:38.900Z,1002.37
2022-08-09T11:30:04.841Z,1002.32
2022-08-09T11:30:35.886Z,1002.33
2022-08-09T11:31:36.605Z,1002.36
2022-08-09T11:32:34.599Z,1002.40
2022-08-09T11:33:35.246Z,1002.31
2022-08-09T11:34:34.851Z,1002.31
2022-08-09T11:35:34.954Z,1002.25
2022-08-09T11:36:36.851Z,1002.26
2022-08-09T11:37:40.905Z,1002.33
2022-08-09T11:38:35.330Z,1002.32
2022-08-09T11:39:38.121Z,1002.32
2022-08-09T11:40:34.333Z,1002.21
2022-08-09T11:41:37.553Z,1002.31
2022-08-09T11:42:34.595Z,1002.22
2022-08-09T11:43:34.295Z,1002.29
2022-08-09T11:44:34.391Z,1002.27
2022-08-09T11:45:42.760Z,1002.23
2022-08-09T11:46:34.297Z,1002.36
2022-08-09T11:47:35.212Z,1002.30
2022-08-09T11:48:36.029Z,1002.26
2022-08-09T11:49:42.762Z,1002.25
2022-08-09T11:50:56.530Z,1002.28
2022-08-09T11:53:00.919Z,1002.18
2022-08-09T11:53:03.757Z,1002.27
2022-08-09T11:54:01.274Z,1002.31
2022-08-09T11:54:36.097Z,1002.27
2022-08-09T11:55:39.862Z,1002.28
2022-08-09T11:56:42.377Z,1002.28
2022-08-09T11:57:47.535Z,1002.34
2022-08-09T11:58:35.946Z,1002.21
2022-08-09T11:59:34.227Z,1002.25
2022-08-09T12:00:34.954Z,1002.25
2022-08-09T12:01:37.453Z,1002.29
2022-08-09T12:02:37.240Z,1002.24
2022-08-09T12:03:55.373Z,1002.34
2022-08-09T12:04:37.858Z,1002.33
2022-08-09T12:05:37.996Z,1002.29
2022-08-09T12:06:35.485Z,1002.26
2022-08-09T12:07:41.373Z,1002.18